Time;durP1;ratioP1;P1;durP2;ratioP2;P2;SDS_P1;SDS_P2;PMS_P1;PMS_P2;Temp;Humidity;BMP_temperature;BMP_pressure;BME280_temperature;BME280_humidity;BME280_pressure;Samples;Min_cycle;Max_cycle;Signal;HPM_P1;HPM_P2
2023/05/15 00:00:14;;;;;;;40.15;36.10;;;;;;;;;;6281476;22;20019;-83
2023/05/15 00:02:40;;;;;;;37.75;33.88;;;;;;;;;;6306982;22;20307;-83
2023/05/15 00:05:07;;;;;;;36.33;32.92;;;;;;;;;;6306667;22;20011;-84
2023/05/15 00:07:33;;;;;;;40.67;36.65;;;;;;;;;;6281074;22;20022;-84
2023/05/15 00:10:00;;;;;;;39.30;35.40;;;;;;;;;;6308144;22;20015;-83
2023/05/15 00:12:26;;;;;;;40.67;36.42;;;;;;;;;;6306193;22;20014;-83
2023/05/15 00:14:52;;;;;;;43.00;38.25;;;;;;;;;;6280775;22;20015;-83
2023/05/15 00:17:18;;;;;;;41.30;37.05;;;;;;;;;;6280626;22;20445;-83
2023/05/15 00:19:45;;;;;;;49.10;40.88;;;;;;;;;;6280847;22;20516;-83
2023/05/15 00:22:11;;;;;;;45.38;39.90;;;;;;;;;;6306532;22;20011;-83
2023/05/15 00:24:37;;;;;;;44.38;39.53;;;;;;;;;;6307425;22;20068;-84
2023/05/15 00:27:04;;;;;;;44.83;40.22;;;;;;;;;;6306068;22;20098;-83
2023/05/15 00:29:30;;;;;;;47.05;41.20;;;;;;;;;;6306817;22;20015;-83
2023/05/15 00:31:56;;;;;;;46.08;41.17;;;;;;;;;;6308673;22;20038;-84
2023/05/15 00:34:22;;;;;;;46.58;41.58;;;;;;;;;;6281887;22;20023;-83
2023/05/15 00:36:48;;;;;;;61.58;48.42;;;;;;;;;;6306463;22;20019;-83
2023/05/15 00:39:14;;;;;;;47.75;42.58;;;;;;;;;;6306365;22;20015;-83
2023/05/15 00:41:41;;;;;;;49.83;44.42;;;;;;;;;;6281782;22;20027;-83
2023/05/15 00:44:08;;;;;;;65.63;47.92;;;;;;;;;;6280611;22;20045;-84
2023/05/15 00:46:34;;;;;;;54.53;44.75;;;;;;;;;;6280760;22;20022;-83
2023/05/15 00:49:02;;;;;;;51.80;45.67;;;;;;;;;;6306330;22;20019;-84
2023/05/15 00:51:28;;;;;;;52.15;45.47;;;;;;;;;;6306355;22;20019;-83
2023/05/15 00:53:55;;;;;;;53.10;45.05;;;;;;;;;;6280604;22;20019;-84
2023/05/15 00:56:21;;;;;;;49.55;43.22;;;;;;;;;;6306407;22;20437;-84
2023/05/15 00:58:48;;;;;;;55.38;45.70;;;;;;;;;;6306407;22;20023;-83
2023/05/15 01:01:15;;;;;;;59.17;46.55;;;;;;;;;;6306698;22;20021;-83
2023/05/15 01:03:42;;;;;;;85.85;52.35;;;;;;;;;;6305964;22;20018;-84
2023/05/15 01:06:08;;;;;;;64.95;47.03;;;;;;;;;;6306654;22;20015;-83
2023/05/15 01:08:40;;;;;;;51.53;45.90;;;;;;;;;;6306213;22;20059;-84
2023/05/15 01:11:07;;;;;;;60.40;49.20;;;;;;;;;;6280530;22;20055;-84
2023/05/15 01:13:34;;;;;;;58.83;48.60;;;;;;;;;;6306652;22;20011;-84
2023/05/15 01:16:00;;;;;;;55.03;48.97;;;;;;;;;;6306292;22;20016;-84
2023/05/15 01:18:31;;;;;;;58.60;49.05;;;;;;;;;;6306534;22;20368;-84
2023/05/15 01:21:15;;;;;;;53.42;46.53;;;;;;;;;;6280618;22;20026;-84
2023/05/15 01:23:51;;;;;;;55.47;47.17;;;;;;;;;;6305866;22;20019;-84
2023/05/15 01:26:35;;;;;;;62.65;48.97;;;;;;;;;;6306227;22;20027;-84
2023/05/15 01:29:05;;;;;;;59.65;47.78;;;;;;;;;;6281406;22;20015;-84
2023/05/15 01:31:33;;;;;;;51.08;45.53;;;;;;;;;;6280362;22;20020;-84
2023/05/15 01:34:02;;;;;;;55.25;47.55;;;;;;;;;;6281393;22;20106;-84
2023/05/15 01:36:28;;;;;;;65.45;46.03;;;;;;;;;;6306247;22;20020;-84
2023/05/15 01:38:56;;;;;;;57.97;44.60;;;;;;;;;;6308744;22;20018;-84
2023/05/15 01:41:41;;;;;;;108.55;48.53;;;;;;;;;;6282301;22;20022;-84
2023/05/15 01:44:07;;;;;;;;;;;;;;;;;;6283922;22;20054;-83
2023/05/15 01:46:40;;;;;;;81.40;46.63;;;;;;;;;;6308974;22;19915;-84
2023/05/15 01:49:08;;;;;;;44.65;39.78;;;;;;;;;;6308323;22;20011;-83
2023/05/15 01:51:37;;;;;;;92.13;42.47;;;;;;;;;;6307913;22;20068;-84
2023/05/15 01:54:03;;;;;;;48.70;41.15;;;;;;;;;;6282506;22;20026;-84
2023/05/15 01:56:29;;;;;;;61.13;42.28;;;;;;;;;;6307834;22;20054;-84
2023/05/15 01:58:58;;;;;;;65.15;40.55;;;;;;;;;;6307965;22;20065;-84
2023/05/15 02:01:25;;;;;;;51.95;41.00;;;;;;;;;;6283139;22;20165;-84
2023/05/15 02:03:52;;;;;;;83.38;41.70;;;;;;;;;;6309357;22;20049;-84
2023/05/15 02:06:19;;;;;;;46.00;37.20;;;;;;;;;;6281909;22;20019;-84
2023/05/15 02:08:46;;;;;;;41.03;36.47;;;;;;;;;;6282182;22;20058;-84
2023/05/15 02:11:13;;;;;;;44.95;35.50;;;;;;;;;;6308751;22;20049;-84
2023/05/15 02:13:39;;;;;;;56.58;37.97;;;;;;;;;;6307680;22;20506;-84
2023/05/15 02:16:06;;;;;;;72.13;37.47;;;;;;;;;;6308733;22;20322;-84
2023/05/15 02:18:32;;;;;;;53.15;36.67;;;;;;;;;;6307915;22;20022;-83
2023/05/15 02:20:59;;;;;;;58.90;35.97;;;;;;;;;;6308649;22;20011;-83
2023/05/15 02:23:26;;;;;;;51.28;34.45;;;;;;;;;;6281777;22;20023;-83
2023/05/15 02:25:55;;;;;;;61.53;37.20;;;;;;;;;;6282063;22;20099;-83
2023/05/15 02:28:30;;;;;;;42.53;33.28;;;;;;;;;;6281833;22;20015;-84
2023/05/15 02:31:00;;;;;;;50.17;35.00;;;;;;;;;;6307953;22;20023;-83
2023/05/15 02:33:39;;;;;;;59.63;35.72;;;;;;;;;;6282098;22;20015;-83
2023/05/15 02:36:07;;;;;;;79.75;37.28;;;;;;;;;;6307980;22;20015;-83
2023/05/15 02:38:36;;;;;;;42.42;35.75;;;;;;;;;;6308527;22;20019;-83
2023/05/15 02:41:03;;;;;;;40.92;36.30;;;;;;;;;;6307502;22;20011;-83
2023/05/15 02:43:29;;;;;;;70.75;34.88;;;;;;;;;;6307756;22;20433;-83
2023/05/15 02:45:56;;;;;;;104.20;37.80;;;;;;;;;;6282641;22;20051;-83
2023/05/15 02:48:22;;;;;;;48.20;30.20;;;;;;;;;;6307224;22;20060;-83
2023/05/15 02:50:48;;;;;;;79.47;32.28;;;;;;;;;;6307703;22;20102;-83
2023/05/15 02:53:15;;;;;;;35.25;31.60;;;;;;;;;;6307462;22;20012;-83
2023/05/15 02:55:41;;;;;;;41.38;32.33;;;;;;;;;;6307136;22;20049;-83
2023/05/15 02:58:07;;;;;;;55.08;34.97;;;;;;;;;;6308457;22;20019;-83
2023/05/15 03:00:33;;;;;;;68.45;35.33;;;;;;;;;;6281456;22;20050;-84
2023/05/15 03:02:59;;;;;;;53.08;35.63;;;;;;;;;;6281681;22;20019;-84
2023/05/15 03:05:26;;;;;;;55.05;37.65;;;;;;;;;;6308290;22;20079;-84
2023/05/15 03:07:52;;;;;;;101.20;41.38;;;;;;;;;;6308161;22;20325;-84
2023/05/15 03:10:20;;;;;;;109.40;36.35;;;;;;;;;;6307185;22;20038;-85
2023/05/15 03:12:46;;;;;;;56.88;34.47;;;;;;;;;;6308204;22;20019;-84
2023/05/15 03:15:12;;;;;;;65.65;33.92;;;;;;;;;;6307448;22;20016;-84
2023/05/15 03:17:38;;;;;;;126.13;36.38;;;;;;;;;;6307017;22;20323;-84
2023/05/15 03:20:04;;;;;;;35.63;31.52;;;;;;;;;;6308066;22;20090;-84
2023/05/15 03:22:30;;;;;;;137.95;37.00;;;;;;;;;;6281887;22;20015;-84
2023/05/15 03:24:57;;;;;;;108.63;35.25;;;;;;;;;;6281035;22;20015;-84
2023/05/15 03:27:23;;;;;;;129.75;32.78;;;;;;;;;;6306852;22;20328;-84
2023/05/15 03:29:49;;;;;;;64.53;33.58;;;;;;;;;;6281402;22;20026;-84
2023/05/15 03:32:16;;;;;;;85.25;32.10;;;;;;;;;;6306936;22;20473;-84
2023/05/15 03:34:42;;;;;;;73.68;32.45;;;;;;;;;;6281765;22;20012;-84
2023/05/15 03:37:08;;;;;;;59.33;30.77;;;;;;;;;;6307216;22;20504;-84
2023/05/15 03:39:34;;;;;;;66.45;31.67;;;;;;;;;;6281380;22;20022;-84
2023/05/15 03:42:00;;;;;;;63.72;31.73;;;;;;;;;;6307229;22;20011;-84
2023/05/15 03:44:26;;;;;;;92.95;33.10;;;;;;;;;;6307859;22;20015;-84
2023/05/15 03:46:52;;;;;;;353.92;50.53;;;;;;;;;;6307745;22;20026;-84
2023/05/15 03:49:18;;;;;;;52.75;30.92;;;;;;;;;;6306685;22;20031;-84
2023/05/15 03:51:44;;;;;;;115.30;32.65;;;;;;;;;;6306722;22;20041;-84
2023/05/15 03:54:11;;;;;;;251.35;41.72;;;;;;;;;;6281287;22;20112;-84
2023/05/15 03:56:37;;;;;;;40.67;31.35;;;;;;;;;;6306544;22;20023;-84
2023/05/15 03:59:03;;;;;;;54.65;33.00;;;;;;;;;;6280916;22;20431;-84
2023/05/15 04:01:29;;;;;;;70.10;30.95;;;;;;;;;;6306125;22;20015;-84
2023/05/15 04:03:55;;;;;;;103.50;31.85;;;;;;;;;;6306658;22;20012;-84
2023/05/15 04:06:21;;;;;;;80.07;29.80;;;;;;;;;;6307559;22;20080;-84
2023/05/15 04:08:48;;;;;;;83.40;31.20;;;;;;;;;;6307048;22;20019;-84
2023/05/15 04:11:14;;;;;;;141.73;34.42;;;;;;;;;;6306932;22;20019;-84
2023/05/15 04:13:40;;;;;;;335.65;50.42;;;;;;;;;;6308464;22;20498;-84
2023/05/15 04:16:07;;;;;;;194.85;41.20;;;;;;;;;;6306908;22;20018;-84
2023/05/15 04:18:33;;;;;;;43.53;30.58;;;;;;;;;;6306383;22;20378;-84
2023/05/15 04:20:59;;;;;;;175.52;42.10;;;;;;;;;;6280853;22;20019;-84
2023/05/15 04:23:25;;;;;;;58.75;33.22;;;;;;;;;;6281840;22;20022;-84
2023/05/15 04:25:52;;;;;;;48.28;34.78;;;;;;;;;;6280646;22;20122;-84
2023/05/15 04:28:20;;;;;;;141.02;35.83;;;;;;;;;;6306534;22;20024;-84
2023/05/15 04:30:46;;;;;;;54.13;32.08;;;;;;;;;;6307546;22;20016;-84
2023/05/15 04:33:12;;;;;;;44.33;31.10;;;;;;;;;;6306417;22;20019;-85
2023/05/15 04:35:39;;;;;;;33.75;30.38;;;;;;;;;;6306388;22;20019;-84
2023/05/15 04:38:05;;;;;;;48.28;32.88;;;;;;;;;;6306462;22;20051;-84
2023/05/15 04:40:31;;;;;;;44.17;32.50;;;;;;;;;;6281006;22;20039;-84
2023/05/15 04:42:57;;;;;;;38.80;32.80;;;;;;;;;;6280603;22;20376;-85
2023/05/15 04:45:23;;;;;;;39.78;33.20;;;;;;;;;;6280750;22;20081;-84
2023/05/15 04:47:50;;;;;;;150.32;41.83;;;;;;;;;;6306548;22;20020;-84
2023/05/15 04:50:16;;;;;;;44.83;34.85;;;;;;;;;;6281616;22;20015;-84
2023/05/15 04:52:42;;;;;;;110.65;44.28;;;;;;;;;;6306361;22;20011;-85
2023/05/15 04:55:08;;;;;;;44.65;34.45;;;;;;;;;;6306051;22;20385;-85
2023/05/15 04:57:34;;;;;;;40.85;33.80;;;;;;;;;;6307370;22;20084;-85
2023/05/15 05:00:01;;;;;;;43.38;33.72;;;;;;;;;;6306357;22;20504;-84
2023/05/15 05:02:27;;;;;;;42.97;33.78;;;;;;;;;;6280842;22;20038;-84
2023/05/15 05:04:53;;;;;;;74.55;37.38;;;;;;;;;;6281115;22;20057;-84
2023/05/15 05:07:19;;;;;;;38.00;33.88;;;;;;;;;;6306177;22;20015;-85
2023/05/15 05:09:45;;;;;;;54.92;36.75;;;;;;;;;;6280700;22;20015;-85
2023/05/15 05:12:11;;;;;;;36.60;32.70;;;;;;;;;;6307177;22;20341;-85
2023/05/15 05:14:40;;;;;;;42.50;33.13;;;;;;;;;;6308307;22;20011;-85
2023/05/15 05:17:06;;;;;;;34.95;31.23;;;;;;;;;;6308237;22;20019;-85
2023/05/15 05:19:32;;;;;;;75.38;37.30;;;;;;;;;;6282593;22;20015;-85
2023/05/15 05:22:03;;;;;;;45.25;32.05;;;;;;;;;;6282690;22;20019;-85
2023/05/15 05:24:29;;;;;;;41.75;31.92;;;;;;;;;;6283451;22;20077;-84
2023/05/15 05:26:59;;;;;;;34.83;30.58;;;;;;;;;;6308128;22;20015;-84
2023/05/15 05:29:25;;;;;;;49.25;33.58;;;;;;;;;;6282335;22;20019;-84
2023/05/15 05:31:51;;;;;;;47.30;34.95;;;;;;;;;;6308475;22;20437;-84
2023/05/15 05:34:17;;;;;;;43.67;33.47;;;;;;;;;;6308427;22;20342;-84
2023/05/15 05:36:43;;;;;;;55.55;38.97;;;;;;;;;;6282139;22;20019;-84
2023/05/15 05:39:09;;;;;;;40.28;34.65;;;;;;;;;;6282430;22;20022;-84
2023/05/15 05:41:35;;;;;;;49.20;36.35;;;;;;;;;;6308378;22;20093;-84
2023/05/15 05:44:01;;;;;;;40.50;33.85;;;;;;;;;;6308059;22;20047;-84
2023/05/15 05:46:28;;;;;;;43.17;36.75;;;;;;;;;;6283234;22;20445;-84
2023/05/15 05:48:54;;;;;;;43.35;36.03;;;;;;;;;;6308183;22;20015;-84
2023/05/15 05:51:20;;;;;;;55.00;35.65;;;;;;;;;;6282395;22;20372;-84
2023/05/15 05:53:46;;;;;;;41.88;34.78;;;;;;;;;;6282175;22;20094;-84
2023/05/15 05:56:12;;;;;;;45.88;34.42;;;;;;;;;;6307634;22;20068;-84
2023/05/15 05:58:38;;;;;;;41.95;35.50;;;;;;;;;;6307803;22;20023;-85
2023/05/15 06:01:04;;;;;;;48.90;35.22;;;;;;;;;;6307496;22;20087;-84
2023/05/15 06:03:31;;;;;;;43.95;35.22;;;;;;;;;;6308192;22;20011;-84
2023/05/15 06:05:57;;;;;;;43.60;36.35;;;;;;;;;;6282984;22;20047;-84
2023/05/15 06:08:23;;;;;;;42.10;33.33;;;;;;;;;;6281895;22;20011;-83
2023/05/15 06:10:49;;;;;;;56.97;37.75;;;;;;;;;;6307787;22;20019;-86
2023/05/15 06:13:15;;;;;;;41.70;34.03;;;;;;;;;;6308729;22;20326;-83
2023/05/15 06:15:41;;;;;;;41.95;32.75;;;;;;;;;;6307797;22;20388;-83
2023/05/15 06:18:07;;;;;;;41.42;34.47;;;;;;;;;;6307622;22;20031;-82
2023/05/15 06:20:33;;;;;;;43.90;34.83;;;;;;;;;;6308714;22;20329;-82
2023/05/15 06:22:59;;;;;;;45.33;33.50;;;;;;;;;;6307671;22;20015;-83
2023/05/15 06:25:25;;;;;;;38.67;33.25;;;;;;;;;;6308957;22;20463;-83
2023/05/15 06:27:51;;;;;;;36.35;31.17;;;;;;;;;;6282872;22;20042;-81
2023/05/15 06:30:17;;;;;;;41.90;32.97;;;;;;;;;;6308583;22;20020;-82
2023/05/15 06:32:43;;;;;;;36.13;32.33;;;;;;;;;;6307579;22;20011;-84
2023/05/15 06:35:10;;;;;;;33.70;30.13;;;;;;;;;;6308538;22;20019;-83
2023/05/15 06:37:36;;;;;;;29.85;27.05;;;;;;;;;;6307540;22;20058;-83
2023/05/15 06:40:03;;;;;;;33.95;29.55;;;;;;;;;;6307497;22;20069;-82
2023/05/15 06:42:29;;;;;;;32.10;28.88;;;;;;;;;;6281899;22;20019;-82
2023/05/15 06:44:56;;;;;;;32.95;29.55;;;;;;;;;;6307498;22;20011;-81
2023/05/15 06:47:22;;;;;;;32.10;28.92;;;;;;;;;;6307341;22;20041;-81
2023/05/15 06:49:48;;;;;;;32.38;28.95;;;;;;;;;;6309551;22;20023;-81
2023/05/15 06:52:14;;;;;;;30.77;27.67;;;;;;;;;;6309216;22;20310;-81
2023/05/15 06:54:41;;;;;;;29.13;26.15;;;;;;;;;;6307172;22;20334;-80
2023/05/15 06:57:07;;;;;;;30.50;27.60;;;;;;;;;;6308490;22;20023;-81
2023/05/15 06:59:34;;;;;;;29.50;26.65;;;;;;;;;;6308324;22;20321;-84
2023/05/15 07:02:03;;;;;;;29.25;26.27;;;;;;;;;;6307655;22;20050;-83
2023/05/15 07:04:30;;;;;;;28.90;26.10;;;;;;;;;;6307197;22;20072;-79
2023/05/15 07:06:56;;;;;;;29.17;25.88;;;;;;;;;;6307160;22;20098;-83
2023/05/15 07:09:22;;;;;;;28.52;25.92;;;;;;;;;;6308728;22;20020;-82
2023/05/15 07:11:48;;;;;;;28.10;25.38;;;;;;;;;;6281645;22;20472;-82
2023/05/15 07:14:14;;;;;;;26.95;24.25;;;;;;;;;;6307193;22;20096;-82
2023/05/15 07:16:40;;;;;;;28.17;25.48;;;;;;;;;;6307426;22;20011;-83
2023/05/15 07:19:10;;;;;;;28.02;25.38;;;;;;;;;;6307382;22;20438;-82
2023/05/15 07:21:36;;;;;;;28.00;25.30;;;;;;;;;;6307061;22;20345;-82
2023/05/15 07:24:02;;;;;;;27.38;24.80;;;;;;;;;;6307052;22;20012;-82
2023/05/15 07:26:31;;;;;;;27.27;24.77;;;;;;;;;;6307326;22;20019;-82
2023/05/15 07:28:57;;;;;;;25.65;23.25;;;;;;;;;;6307078;22;20015;-81
2023/05/15 07:31:23;;;;;;;26.23;23.83;;;;;;;;;;6307021;22;20019;-85
2023/05/15 07:33:50;;;;;;;23.90;21.70;;;;;;;;;;6307351;22;20329;-85
2023/05/15 07:36:16;;;;;;;22.88;20.88;;;;;;;;;;6307792;22;20022;-84
2023/05/15 07:38:42;;;;;;;24.00;21.85;;;;;;;;;;6281619;22;20015;-84
2023/05/15 07:41:08;;;;;;;23.52;21.50;;;;;;;;;;6280733;22;20049;-84
2023/05/15 07:43:34;;;;;;;21.60;19.80;;;;;;;;;;6307234;22;20335;-84
2023/05/15 07:46:00;;;;;;;22.80;20.80;;;;;;;;;;6307855;22;20019;-85
2023/05/15 07:48:26;;;;;;;23.50;21.33;;;;;;;;;;6306642;22;20157;-85
2023/05/15 07:50:52;;;;;;;21.20;19.25;;;;;;;;;;6306853;22;20022;-85
2023/05/15 07:53:18;;;;;;;22.15;20.15;;;;;;;;;;6281339;22;20100;-85
2023/05/15 07:55:45;;;;;;;20.90;19.05;;;;;;;;;;6308294;22;20045;-85
2023/05/15 07:58:11;;;;;;;21.02;19.33;;;;;;;;;;6306796;22;20021;-85
2023/05/15 08:00:37;;;;;;;20.15;18.15;;;;;;;;;;6307758;22;20019;-85
2023/05/15 08:03:03;;;;;;;19.92;18.30;;;;;;;;;;6306701;22;20445;-85
2023/05/15 08:05:29;;;;;;;21.05;19.33;;;;;;;;;;6280937;22;20015;-85
2023/05/15 08:07:56;;;;;;;20.02;18.33;;;;;;;;;;6306542;22;20094;-85
2023/05/15 08:10:22;;;;;;;20.45;18.75;;;;;;;;;;6306985;22;20149;-84
2023/05/15 08:12:49;;;;;;;17.60;16.13;;;;;;;;;;6308874;22;20447;-85
2023/05/15 08:15:15;;;;;;;17.92;16.55;;;;;;;;;;6306681;22;20023;-84
2023/05/15 08:17:41;;;;;;;18.35;16.83;;;;;;;;;;6280785;22;20035;-84
2023/05/15 08:20:08;;;;;;;17.90;16.30;;;;;;;;;;6280944;22;20023;-84
2023/05/15 08:22:34;;;;;;;18.20;16.67;;;;;;;;;;6306642;22;20011;-84
2023/05/15 08:25:02;;;;;;;18.35;16.75;;;;;;;;;;6308870;22;20098;-82
2023/05/15 08:27:28;;;;;;;17.00;15.80;;;;;;;;;;6306529;22;20019;-84
2023/05/15 08:29:55;;;;;;;17.90;16.42;;;;;;;;;;6308045;22;20323;-85
2023/05/15 08:32:21;;;;;;;18.00;16.60;;;;;;;;;;6307477;22;20012;-84
2023/05/15 08:34:47;;;;;;;18.88;17.40;;;;;;;;;;6306834;22;20026;-85
2023/05/15 08:37:14;;;;;;;19.08;17.48;;;;;;;;;;6308972;22;20012;-85
2023/05/15 08:39:40;;;;;;;18.48;17.00;;;;;;;;;;6280932;22;20155;-85
2023/05/15 08:42:30;;;;;;;19.15;17.75;;;;;;;;;;6306482;22;20105;-85
2023/05/15 08:44:56;;;;;;;18.98;17.25;;;;;;;;;;6307448;22;20022;-84
2023/05/15 08:47:23;;;;;;;16.75;15.40;;;;;;;;;;6306701;22;20322;-85
2023/05/15 08:50:18;;;;;;;16.90;15.60;;;;;;;;;;6310008;22;20336;-85
2023/05/15 08:52:45;;;;;;;17.95;16.52;;;;;;;;;;6295340;22;20015;-85
2023/05/15 08:55:13;;;;;;;15.93;14.48;;;;;;;;;;6309068;22;20337;-85
2023/05/15 08:57:40;;;;;;;14.73;13.65;;;;;;;;;;6283055;22;20019;-85
2023/05/15 09:00:15;;;;;;;14.88;13.63;;;;;;;;;;6308529;22;20086;-85
2023/05/15 09:02:41;;;;;;;17.63;16.10;;;;;;;;;;6308814;22;20465;-85
2023/05/15 09:05:08;;;;;;;17.45;16.05;;;;;;;;;;6308531;22;20379;-85
2023/05/15 09:07:35;;;;;;;15.90;14.77;;;;;;;;;;6308023;22;20022;-85
2023/05/15 09:10:02;;;;;;;16.05;14.88;;;;;;;;;;6308736;22;20019;-85
2023/05/15 09:12:32;;;;;;;16.40;15.10;;;;;;;;;;6308682;22;20045;-85
2023/05/15 09:15:17;;;;;;;15.65;14.30;;;;;;;;;;6308326;22;20472;-85
2023/05/15 09:17:43;;;;;;;15.18;13.88;;;;;;;;;;6309342;22;20037;-84
2023/05/15 09:20:28;;;;;;;15.13;14.02;;;;;;;;;;6308595;22;20329;-85
2023/05/15 09:22:54;;;;;;;14.93;13.80;;;;;;;;;;6308712;22;20015;-84
2023/05/15 09:25:37;;;;;;;13.63;12.63;;;;;;;;;;6307958;22;20028;-85
2023/05/15 09:28:03;;;;;;;13.95;12.57;;;;;;;;;;6308178;22;20012;-84
2023/05/15 09:30:30;;;;;;;13.55;12.45;;;;;;;;;;6282462;22;20051;-85
2023/05/15 09:33:00;;;;;;;13.43;12.52;;;;;;;;;;6309264;22;20333;-84
2023/05/15 09:35:33;;;;;;;13.48;12.45;;;;;;;;;;6310516;22;20058;-84
2023/05/15 09:38:00;;;;;;;14.50;13.43;;;;;;;;;;6310440;22;20110;-84
2023/05/15 09:40:28;;;;;;;13.77;12.88;;;;;;;;;;6308126;22;20090;-84
2023/05/15 09:42:54;;;;;;;14.07;12.85;;;;;;;;;;6308278;22;20062;-84
2023/05/15 09:45:20;;;;;;;14.35;13.20;;;;;;;;;;6282694;22;20023;-85
2023/05/15 09:47:46;;;;;;;13.77;12.70;;;;;;;;;;6308318;22;20326;-84
2023/05/15 09:50:13;;;;;;;14.25;13.20;;;;;;;;;;6308025;22;20346;-84
2023/05/15 09:52:39;;;;;;;14.10;13.10;;;;;;;;;;6282371;22;20019;-84
2023/05/15 09:55:06;;;;;;;15.18;13.27;;;;;;;;;;6308594;22;20098;-84
2023/05/15 09:57:32;;;;;;;13.38;12.15;;;;;;;;;;6282469;22;20015;-82
2023/05/15 10:00:04;;;;;;;12.85;11.98;;;;;;;;;;6282496;22;20341;-83
2023/05/15 10:02:31;;;;;;;12.15;11.23;;;;;;;;;;6308300;22;20338;-83
2023/05/15 10:04:57;;;;;;;11.70;10.68;;;;;;;;;;6308221;22;20093;-83
2023/05/15 10:07:30;;;;;;;11.30;10.60;;;;;;;;;;6307852;22;20444;-83
2023/05/15 10:09:56;;;;;;;10.90;10.10;;;;;;;;;;6307872;22;20094;-83
2023/05/15 10:12:23;;;;;;;10.88;10.18;;;;;;;;;;6307867;22;20018;-84
2023/05/15 10:14:50;;;;;;;11.57;10.57;;;;;;;;;;6307830;22;20011;-84
2023/05/15 10:17:17;;;;;;;11.05;10.25;;;;;;;;;;6309304;22;20082;-84
2023/05/15 10:19:44;;;;;;;10.02;9.32;;;;;;;;;;6308667;22;20023;-84
2023/05/15 10:22:10;;;;;;;11.18;10.23;;;;;;;;;;6282284;22;20015;-85
2023/05/15 10:24:38;;;;;;;9.55;8.95;;;;;;;;;;6307707;22;20137;-84
2023/05/15 10:27:04;;;;;;;8.93;8.23;;;;;;;;;;6307665;22;20011;-85
2023/05/15 10:29:31;;;;;;;8.57;7.93;;;;;;;;;;6307774;22;20334;-84
2023/05/15 10:31:58;;;;;;;8.20;7.50;;;;;;;;;;6308800;22;20011;-84
2023/05/15 10:34:24;;;;;;;10.50;9.70;;;;;;;;;;6307704;22;20057;-84
2023/05/15 10:36:51;;;;;;;8.93;8.45;;;;;;;;;;6282816;22;20430;-84
2023/05/15 10:39:17;;;;;;;9.82;9.15;;;;;;;;;;6281842;22;20022;-84
2023/05/15 10:41:44;;;;;;;9.18;8.48;;;;;;;;;;6307644;22;20460;-83
2023/05/15 10:44:11;;;;;;;9.57;8.88;;;;;;;;;;6307449;22;20019;-83
2023/05/15 10:46:37;;;;;;;10.82;9.98;;;;;;;;;;6306971;22;20058;-84
2023/05/15 10:49:03;;;;;;;10.45;9.60;;;;;;;;;;6307761;22;20019;-84
2023/05/15 10:51:35;;;;;;;8.95;8.30;;;;;;;;;;6307485;22;20441;-85
2023/05/15 10:54:04;;;;;;;8.05;7.43;;;;;;;;;;6307369;22;20022;-84
2023/05/15 10:56:32;;;;;;;8.13;7.35;;;;;;;;;;6307143;22;20492;-85
2023/05/15 10:58:58;;;;;;;7.50;7.07;;;;;;;;;;6307473;22;20027;-84
2023/05/15 11:01:28;;;;;;;7.45;6.95;;;;;;;;;;6307729;22;20015;-84
2023/05/15 11:04:12;;;;;;;7.90;7.30;;;;;;;;;;6308930;22;20019;-84
2023/05/15 11:06:40;;;;;;;8.57;8.05;;;;;;;;;;6308770;22;20068;-84
2023/05/15 11:09:35;;;;;;;8.27;7.68;;;;;;;;;;6308301;22;20011;-84
2023/05/15 11:12:03;;;;;;;9.32;8.77;;;;;;;;;;6287845;22;20054;-84
2023/05/15 11:14:30;;;;;;;10.20;9.60;;;;;;;;;;6282097;22;20027;-85
2023/05/15 11:16:57;;;;;;;10.35;9.55;;;;;;;;;;6307491;22;20472;-84
2023/05/15 11:19:23;;;;;;;10.77;9.98;;;;;;;;;;6307200;22;20030;-84
2023/05/15 11:22:22;;;;;;;11.43;10.55;;;;;;;;;;6308860;22;20023;-84
2023/05/15 11:24:50;;;;;;;10.07;9.27;;;;;;;;;;6275720;22;20015;-85
2023/05/15 11:27:18;;;;;;;9.32;8.63;;;;;;;;;;6283408;22;20023;-84
2023/05/15 11:30:03;;;;;;;9.85;9.13;;;;;;;;;;6308171;22;20022;-84
2023/05/15 11:32:52;;;;;;;9.23;8.40;;;;;;;;;;6307215;22;20345;-84
2023/05/15 11:35:20;;;;;;;9.63;8.93;;;;;;;;;;6294891;22;20050;-84
2023/05/15 11:38:07;;;;;;;9.45;8.82;;;;;;;;;;6307090;22;20088;-84
2023/05/15 11:40:43;;;;;;;9.93;9.32;;;;;;;;;;6290878;22;20035;-85
2023/05/15 11:43:09;;;;;;;9.35;8.73;;;;;;;;;;6306634;22;20019;-84
2023/05/15 11:45:36;;;;;;;9.20;8.57;;;;;;;;;;6306955;22;20019;-84
2023/05/15 11:48:03;;;;;;;9.35;8.68;;;;;;;;;;6308249;22;20038;-84
2023/05/15 11:50:31;;;;;;;8.90;8.25;;;;;;;;;;6307704;22;20027;-84
2023/05/15 11:52:57;;;;;;;47.30;23.75;;;;;;;;;;6307930;22;20434;-84
2023/05/15 11:55:24;;;;;;;9.40;8.70;;;;;;;;;;6306324;22;20329;-84
2023/05/15 11:57:50;;;;;;;9.18;8.68;;;;;;;;;;6306814;22;20445;-84
2023/05/15 12:00:16;;;;;;;8.70;8.00;;;;;;;;;;6307873;22;20452;-84
2023/05/15 12:02:43;;;;;;;8.20;7.55;;;;;;;;;;6281196;22;20311;-84
2023/05/15 12:05:09;;;;;;;9.73;9.13;;;;;;;;;;6307763;22;20023;-84
2023/05/15 12:07:36;;;;;;;9.60;9.00;;;;;;;;;;6306676;22;20015;-84
2023/05/15 12:10:03;;;;;;;10.52;9.82;;;;;;;;;;6307031;22;20311;-84
2023/05/15 12:12:29;;;;;;;9.45;8.85;;;;;;;;;;6308523;22;20344;-84
2023/05/15 12:14:58;;;;;;;10.60;9.60;;;;;;;;;;6306827;22;20023;-84
2023/05/15 12:17:24;;;;;;;10.98;10.10;;;;;;;;;;6306966;22;20441;-85
2023/05/15 12:19:51;;;;;;;10.43;9.63;;;;;;;;;;6307571;22;20019;-84
2023/05/15 12:22:17;;;;;;;19.88;16.90;;;;;;;;;;6306220;22;20015;-84
2023/05/15 12:24:44;;;;;;;10.38;9.57;;;;;;;;;;6280815;22;20073;-84
2023/05/15 12:27:10;;;;;;;22.52;15.52;;;;;;;;;;6308127;22;20019;-84
2023/05/15 12:29:37;;;;;;;19.13;13.60;;;;;;;;;;6307746;22;20453;-84
2023/05/15 12:32:04;;;;;;;13.73;10.27;;;;;;;;;;6306460;22;20020;-84
2023/05/15 12:34:30;;;;;;;9.60;8.98;;;;;;;;;;6308775;22;20024;-84
2023/05/15 12:36:58;;;;;;;8.48;7.93;;;;;;;;;;6308073;22;20090;-83
2023/05/15 12:39:25;;;;;;;8.63;7.82;;;;;;;;;;6306555;22;20018;-83
2023/05/15 12:41:53;;;;;;;8.80;8.18;;;;;;;;;;6306579;22;20015;-83
2023/05/15 12:44:19;;;;;;;9.65;9.05;;;;;;;;;;6280976;22;20023;-83
2023/05/15 12:46:46;;;;;;;8.63;8.02;;;;;;;;;;6306442;22;20015;-83
2023/05/15 12:49:12;;;;;;;9.25;8.52;;;;;;;;;;6306414;22;20453;-82
2023/05/15 12:51:42;;;;;;;8.05;7.25;;;;;;;;;;6280777;22;20023;-83
2023/05/15 12:54:16;;;;;;;7.45;6.95;;;;;;;;;;6280287;22;20084;-83
2023/05/15 12:56:42;;;;;;;6.87;6.47;;;;;;;;;;6306323;22;20066;-82
2023/05/15 12:59:08;;;;;;;7.70;7.10;;;;;;;;;;6306562;22;20073;-83
2023/05/15 13:01:34;;;;;;;7.95;7.22;;;;;;;;;;6307537;22;20018;-83
2023/05/15 13:04:00;;;;;;;6.95;6.35;;;;;;;;;;6307591;22;20086;-83
2023/05/15 13:06:27;;;;;;;6.30;5.80;;;;;;;;;;6306533;22;20334;-83
2023/05/15 13:08:54;;;;;;;6.18;5.88;;;;;;;;;;6305959;22;20018;-83
2023/05/15 13:11:20;;;;;;;7.82;7.35;;;;;;;;;;6280587;22;20015;-84
2023/05/15 13:13:48;;;;;;;10.98;10.05;;;;;;;;;;6282006;22;20015;-84
2023/05/15 13:16:18;;;;;;;12.50;11.60;;;;;;;;;;6306321;22;20341;-83
2023/05/15 13:18:44;;;;;;;12.82;11.93;;;;;;;;;;6305797;22;20064;-83
2023/05/15 13:21:10;;;;;;;11.55;10.73;;;;;;;;;;6306588;22;20058;-83
2023/05/15 13:23:36;;;;;;;10.10;8.70;;;;;;;;;;6306665;22;20385;-82
2023/05/15 13:26:02;;;;;;;10.68;9.93;;;;;;;;;;6306592;22;20026;-82
2023/05/15 13:28:28;;;;;;;10.90;9.98;;;;;;;;;;6305822;22;20094;-82
2023/05/15 13:30:54;;;;;;;12.15;11.18;;;;;;;;;;6306304;22;20011;-83
2023/05/15 13:33:20;;;;;;;11.00;10.10;;;;;;;;;;6307073;22;20015;-83
2023/05/15 13:35:46;;;;;;;10.43;9.68;;;;;;;;;;6309782;22;20030;-83
2023/05/15 13:38:13;;;;;;;10.00;9.38;;;;;;;;;;6308232;22;20011;-83
2023/05/15 13:40:39;;;;;;;9.90;9.00;;;;;;;;;;6310091;22;20076;-83
2023/05/15 13:43:08;;;;;;;9.48;8.73;;;;;;;;;;6308182;22;20507;-83
2023/05/15 13:45:34;;;;;;;9.63;8.93;;;;;;;;;;6308423;22;20090;-83
2023/05/15 13:48:00;;;;;;;10.00;9.18;;;;;;;;;;6307992;22;20425;-82
2023/05/15 13:50:26;;;;;;;8.90;8.35;;;;;;;;;;6308164;22;20011;-83
2023/05/15 13:52:53;;;;;;;8.30;7.70;;;;;;;;;;6308343;22;20441;-83
2023/05/15 13:55:19;;;;;;;8.20;7.75;;;;;;;;;;6308132;22;20019;-83
2023/05/15 13:57:46;;;;;;;8.00;7.50;;;;;;;;;;6308022;22;20030;-83
2023/05/15 14:00:12;;;;;;;9.10;8.45;;;;;;;;;;6307633;22;20011;-83
2023/05/15 14:02:42;;;;;;;8.75;8.15;;;;;;;;;;6281906;22;20027;-83
2023/05/15 14:05:09;;;;;;;7.82;7.15;;;;;;;;;;6308950;22;20363;-83
2023/05/15 14:07:36;;;;;;;4.32;4.00;;;;;;;;;;6309394;22;20019;-83
2023/05/15 14:10:02;;;;;;;3.67;2.70;;;;;;;;;;6308207;22;20018;-83
2023/05/15 14:12:28;;;;;;;2.28;2.15;;;;;;;;;;6307951;22;20053;-83
2023/05/15 14:14:54;;;;;;;2.17;2.08;;;;;;;;;;6310078;22;20327;-83
2023/05/15 14:17:22;;;;;;;5.13;2.28;;;;;;;;;;6307953;22;20073;-83
2023/05/15 14:19:48;;;;;;;2.92;2.58;;;;;;;;;;6307739;22;20026;-83
2023/05/15 14:22:14;;;;;;;3.22;3.13;;;;;;;;;;6307805;22;20019;-83